Time;durP1;ratioP1;P1;durP2;ratioP2;P2;SDS_P1;SDS_P2;PMS_P1;PMS_P2;Temp;Humidity;BMP_temperature;BMP_pressure;BME280_temperature;BME280_humidity;BME280_pressure;Samples;Min_cycle;Max_cycle;Signal;HPM_P1;HPM_P2
2023/04/03 00:00:01;;;;;;;3.57;3.37;;;;;;;0.86;100.00;97645.41;4953843;28;20753;-66
2023/04/03 00:02:28;;;;;;;4.03;3.77;;;;;;;0.87;100.00;97643.66;4926899;28;20221;-66
2023/04/03 00:04:57;;;;;;;3.70;3.50;;;;;;;0.89;100.00;97654.81;4928680;28;20224;-65
2023/04/03 00:07:25;;;;;;;3.77;3.47;;;;;;;0.87;100.00;97648.88;4899252;28;20226;-66
2023/04/03 00:09:53;;;;;;;4.00;3.60;;;;;;;0.83;100.00;97650.84;4953636;28;20230;-66
2023/04/03 00:12:21;;;;;;;3.83;3.63;;;;;;;0.86;100.00;97650.63;4933063;28;20716;-68
2023/04/03 00:14:49;;;;;;;4.00;3.70;;;;;;;0.85;100.00;97651.56;4949550;28;20575;-66
2023/04/03 00:17:16;;;;;;;3.63;3.43;;;;;;;0.87;100.00;97654.09;4952398;28;20404;-67
2023/04/03 00:19:44;;;;;;;4.00;3.70;;;;;;;0.82;100.00;97646.59;4904949;28;20385;-65
2023/04/03 00:22:16;;;;;;;3.90;3.70;;;;;;;0.71;100.00;97636.91;4916085;28;20206;-67
2023/04/03 00:24:44;;;;;;;4.17;3.50;;;;;;;0.78;100.00;97660.78;4921943;28;20653;-66
2023/04/03 00:27:11;;;;;;;4.13;3.83;;;;;;;0.77;100.00;97656.53;4950360;28;20756;-66
2023/04/03 00:29:39;;;;;;;4.07;3.73;;;;;;;0.75;100.00;97657.56;4913033;28;20233;-65
2023/04/03 00:32:07;;;;;;;3.80;3.60;;;;;;;0.68;100.00;97660.63;4948362;28;20515;-66
2023/04/03 00:34:34;;;;;;;4.23;3.83;;;;;;;0.63;100.00;97656.69;4929232;28;20677;-65
2023/04/03 00:37:02;;;;;;;3.70;3.50;;;;;;;0.58;100.00;97651.78;4923779;28;20255;-66
2023/04/03 00:39:31;;;;;;;3.87;3.63;;;;;;;0.68;100.00;97659.78;4900216;28;20790;-65
2023/04/03 00:41:58;;;;;;;4.20;3.90;;;;;;;0.64;100.00;97660.97;4949612;28;20206;-67
2023/04/03 00:45:00;;;;;;;3.70;3.50;;;;;;;0.62;100.00;97670.69;4927225;28;20743;-66
2023/04/03 00:47:29;;;;;;;4.53;4.22;;;;;;;0.48;100.00;97640.34;4945298;28;20798;-67
2023/04/03 00:49:57;;;;;;;4.70;4.30;;;;;;;0.55;100.00;97647.63;4937001;28;20377;-67
2023/04/03 00:52:29;;;;;;;4.60;4.30;;;;;;;0.63;100.00;97654.91;4923598;28;20695;-66
2023/04/03 00:55:02;;;;;;;4.03;3.73;;;;;;;0.63;100.00;97659.28;4903136;28;20566;-66
2023/04/03 00:57:31;;;;;;;3.80;3.57;;;;;;;0.63;100.00;97669.72;4926678;28;20239;-67
2023/04/03 01:00:04;;;;;;;4.27;3.97;;;;;;;0.66;100.00;97667.72;4926632;28;20237;-68
2023/04/03 01:02:32;;;;;;;4.10;3.80;;;;;;;0.62;100.00;97658.44;4933969;28;20409;-65
2023/04/03 01:05:00;;;;;;;3.83;3.53;;;;;;;0.64;100.00;97666.19;4949587;28;20213;-65
2023/04/03 01:07:30;;;;;;;4.43;4.13;;;;;;;0.65;100.00;97662.63;4924204;28;20201;-66
2023/04/03 01:10:01;;;;;;;3.57;3.27;;;;;;;0.65;100.00;97660.84;4900729;28;20726;-65
2023/04/03 01:12:31;;;;;;;4.10;3.90;;;;;;;0.60;100.00;97649.91;4932678;28;20213;-67
2023/04/03 01:15:00;;;;;;;3.60;3.30;;;;;;;0.72;100.00;97664.66;4930351;28;20213;-66
2023/04/03 01:17:30;;;;;;;3.70;3.50;;;;;;;0.68;100.00;97660.63;4930236;28;20214;-65
2023/04/03 01:20:23;;;;;;;3.97;3.77;;;;;;;0.64;100.00;97658.34;4949130;28;20408;-65
2023/04/03 01:22:57;;;;;;;3.80;3.60;;;;;;;0.61;100.00;97655.97;4939436;28;20683;-66
2023/04/03 01:25:27;;;;;;;3.97;3.63;;;;;;;0.58;100.00;97651.78;4890597;28;20210;-67
2023/04/03 01:27:55;;;;;;;3.70;3.50;;;;;;;0.61;100.00;97661.19;4926190;28;20238;-66
2023/04/03 01:30:27;;;;;;;4.00;3.70;;;;;;;0.58;100.00;97662.22;4921767;28;20348;-67
2023/04/03 01:32:56;;;;;;;4.07;3.80;;;;;;;0.62;100.00;97671.50;4948735;28;20784;-66
2023/04/03 01:35:24;;;;;;;4.23;3.93;;;;;;;0.59;100.00;97669.09;4950112;28;20206;-67
2023/04/03 01:37:52;;;;;;;3.37;3.17;;;;;;;0.56;100.00;97664.94;4923273;28;22458;-65
2023/04/03 01:40:21;;;;;;;4.23;3.93;;;;;;;0.50;100.00;97652.31;4931516;28;20248;-65
2023/04/03 01:42:49;;;;;;;4.83;4.63;;;;;;;0.65;100.00;97670.44;4940995;28;20346;-65
2023/04/03 01:45:16;;;;;;;4.23;3.87;;;;;;;0.58;100.00;97677.88;4939006;28;20893;-65
2023/04/03 01:47:44;;;;;;;4.37;3.67;;;;;;;0.50;100.00;97681.00;4935271;28;20593;-66
2023/04/03 01:50:13;;;;;;;4.10;3.90;;;;;;;0.52;100.00;97686.94;4967448;28;20233;-65
2023/04/03 01:52:41;;;;;;;4.50;4.20;;;;;;;0.55;100.00;97684.13;4940980;28;20368;-67
2023/04/03 01:55:09;;;;;;;3.37;3.23;;;;;;;0.59;100.00;97682.13;4972912;28;20260;-64
2023/04/03 01:57:37;;;;;;;4.37;3.97;;;;;;;0.56;100.00;97685.78;4915831;28;20374;-65
2023/04/03 02:00:05;;;;;;;3.60;3.40;;;;;;;0.56;100.00;97682.38;4949190;28;20874;-65
2023/04/03 02:02:33;;;;;;;3.43;3.23;;;;;;;0.53;100.00;97677.38;4932189;28;20231;-65
2023/04/03 02:05:01;;;;;;;4.13;3.83;;;;;;;0.54;100.00;97687.66;4954145;28;20445;-66
2023/04/03 02:07:30;;;;;;;3.77;3.57;;;;;;;0.48;100.00;97680.28;4945008;28;20304;-67
2023/04/03 02:09:57;;;;;;;3.67;3.47;;;;;;;0.47;100.00;97689.06;4925292;28;20235;-66
2023/04/03 02:12:30;;;;;;;3.70;3.50;;;;;;;0.38;100.00;97672.31;4915272;28;20197;-66
2023/04/03 02:14:58;;;;;;;4.27;3.93;;;;;;;0.48;100.00;97693.31;4926084;28;20498;-66
2023/04/03 02:17:26;;;;;;;3.80;3.50;;;;;;;0.44;100.00;97689.28;4923198;28;20231;-67
2023/04/03 02:19:53;;;;;;;3.33;3.13;;;;;;;0.46;100.00;97687.38;4948135;28;20222;-67
2023/04/03 02:22:21;;;;;;;4.10;3.80;;;;;;;0.40;100.00;97680.84;4924352;28;20373;-67
2023/04/03 02:24:51;;;;;;;3.60;3.40;;;;;;;0.39;100.00;97683.53;4926999;28;20201;-65
2023/04/03 02:27:19;;;;;;;3.70;3.50;;;;;;;0.32;100.00;97671.88;4953426;28;20277;-67
2023/04/03 02:29:47;;;;;;;3.73;3.43;;;;;;;0.33;100.00;97689.19;4879416;28;20789;-67
2023/04/03 02:32:14;;;;;;;3.43;3.23;;;;;;;0.34;100.00;97690.88;4942606;28;20296;-67
2023/04/03 02:34:42;;;;;;;4.90;4.60;;;;;;;0.33;100.00;97691.81;4920518;28;20221;-66
2023/04/03 02:37:10;;;;;;;3.97;3.60;;;;;;;0.33;100.00;97691.81;4949812;28;20209;-67
2023/04/03 02:39:37;;;;;;;4.13;3.80;;;;;;;0.33;100.00;97684.78;4924250;28;21745;-66
2023/04/03 02:42:07;;;;;;;3.47;3.27;;;;;;;0.38;100.00;97684.50;4952567;28;20219;-66
2023/04/03 02:44:35;;;;;;;3.93;3.73;;;;;;;0.37;100.00;97682.81;4893574;28;20714;-66
2023/04/03 02:47:03;;;;;;;3.67;3.47;;;;;;;0.37;100.00;97690.66;4899536;28;20542;-67
2023/04/03 02:49:30;;;;;;;3.70;3.43;;;;;;;0.42;100.00;97694.59;4915768;28;20554;-65
2023/04/03 02:51:58;;;;;;;5.07;3.73;;;;;;;0.38;100.00;97685.34;4943276;28;20713;-68
2023/04/03 02:54:28;;;;;;;3.67;3.47;;;;;;;0.33;100.00;97683.97;4948917;28;20205;-66
2023/04/03 02:56:56;;;;;;;4.07;3.87;;;;;;;0.32;100.00;97693.56;4927010;28;20209;-67
2023/04/03 02:59:25;;;;;;;3.97;3.67;;;;;;;0.32;100.00;97692.75;4952195;28;20221;-67
2023/04/03 03:01:52;;;;;;;3.93;3.73;;;;;;;0.31;100.00;97688.47;4883636;28;20226;-66
2023/04/03 03:04:20;;;;;;;4.07;3.77;;;;;;;0.24;100.00;97688.91;4931201;28;20423;-66
2023/04/03 03:06:48;;;;;;;5.07;3.60;;;;;;;0.26;100.00;97694.84;4916759;28;20229;-66
2023/04/03 03:09:15;;;;;;;3.63;3.43;;;;;;;0.24;100.00;97691.50;4927015;28;20400;-65
2023/04/03 03:11:43;;;;;;;4.47;4.07;;;;;;;0.24;100.00;97690.66;4930400;28;20613;-66
2023/04/03 03:14:10;;;;;;;4.40;4.00;;;;;;;0.30;100.00;97690.22;4953156;28;20625;-66
2023/04/03 03:16:39;;;;;;;3.93;3.63;;;;;;;0.15;100.00;97681.69;4901901;28;20443;-66
2023/04/03 03:19:07;;;;;;;3.60;3.40;;;;;;;0.20;100.00;97692.66;4912076;28;21074;-66
2023/04/03 03:21:35;;;;;;;4.63;4.33;;;;;;;0.11;100.00;97681.09;4935399;28;20219;-66
2023/04/03 03:24:02;;;;;;;4.33;3.93;;;;;;;0.20;100.00;97689.22;4949875;28;20233;-67
2023/04/03 03:26:30;;;;;;;4.00;3.70;;;;;;;0.20;100.00;97694.41;4929888;28;20205;-66
2023/04/03 03:28:57;;;;;;;3.90;3.60;;;;;;;0.18;100.00;97691.09;4945814;28;20214;-66
2023/04/03 03:31:25;;;;;;;4.10;3.90;;;;;;;0.21;100.00;97690.88;4953343;28;20229;-65
2023/04/03 03:33:54;;;;;;;4.93;4.43;;;;;;;0.14;100.00;97695.66;4919510;28;20218;-66
2023/04/03 03:36:21;;;;;;;3.83;3.63;;;;;;;0.09;100.00;97690.78;4926720;28;20217;-67
2023/04/03 03:38:49;;;;;;;4.20;3.80;;;;;;;0.08;100.00;97689.13;4936050;28;20221;-66
2023/04/03 03:41:17;;;;;;;4.27;4.00;;;;;;;0.09;100.00;97693.41;4956178;28;20225;-66
2023/04/03 03:43:44;;;;;;;5.13;4.73;;;;;;;0.06;100.00;97690.16;4934430;28;20212;-65
2023/04/03 03:46:12;;;;;;;4.77;4.47;;;;;;;-0.04;100.00;97682.13;4953415;28;20201;-66
2023/04/03 03:48:40;;;;;;;4.10;3.90;;;;;;;0.03;100.00;97687.75;4920970;28;20209;-66
2023/04/03 03:51:09;;;;;;;4.10;3.80;;;;;;;0.08;100.00;97691.72;4931395;28;20240;-66
2023/04/03 03:53:36;;;;;;;4.20;4.00;;;;;;;0.03;100.00;97698.19;4940405;28;20296;-66
2023/04/03 03:56:05;;;;;;;3.67;3.47;;;;;;;0.05;100.00;97691.94;4951779;28;20202;-66
2023/04/03 03:58:33;;;;;;;4.30;4.00;;;;;;;-0.01;100.00;97695.78;4935786;28;20229;-65
2023/04/03 04:01:01;;;;;;;4.27;3.93;;;;;;;-0.02;100.00;97690.66;4951671;28;20218;-68
2023/04/03 04:03:29;;;;;;;3.93;3.73;;;;;;;0.01;100.00;97700.91;4917472;28;20275;-64
2023/04/03 04:05:57;;;;;;;4.50;4.20;;;;;;;-0.10;100.00;97682.56;4944189;28;20680;-66
2023/04/03 04:08:26;;;;;;;4.40;4.20;;;;;;;0.02;100.00;97699.97;4930365;28;20218;-63
2023/04/03 04:10:54;;;;;;;3.93;3.63;;;;;;;0.02;100.00;97701.72;4953383;28;20221;-65
2023/04/03 04:13:21;;;;;;;4.33;4.03;;;;;;;-0.05;100.00;97691.72;4952817;28;20204;-65
2023/04/03 04:15:49;;;;;;;3.83;3.53;;;;;;;-0.05;100.00;97694.34;4926951;28;20205;-66
2023/04/03 04:18:17;;;;;;;5.00;4.60;;;;;;;-0.09;100.00;97695.47;4919704;28;20280;-65
2023/04/03 04:20:46;;;;;;;4.33;4.03;;;;;;;-0.10;100.00;97699.03;4953659;28;20311;-66
2023/04/03 04:23:14;;;;;;;4.13;3.93;;;;;;;-0.04;100.00;97703.81;4912789;28;20859;-66
2023/04/03 04:25:45;;;;;;;4.63;4.27;;;;;;;-0.07;100.00;97698.81;4953834;28;20201;-66
2023/04/03 04:28:13;;;;;;;4.47;4.17;;;;;;;-0.01;100.00;97707.97;4950361;28;20205;-65
2023/04/03 04:30:40;;;;;;;4.50;4.20;;;;;;;-0.05;100.00;97707.34;4931168;28;20551;-67
2023/04/03 04:33:08;;;;;;;4.67;4.27;;;;;;;-0.04;100.00;97705.56;4903060;28;20321;-67
2023/04/03 04:35:36;;;;;;;4.20;3.90;;;;;;;-0.06;100.00;97707.44;4956954;28;20692;-66
2023/04/03 04:38:04;;;;;;;4.47;4.07;;;;;;;-0.08;100.00;97702.34;4926121;28;20245;-67
2023/04/03 04:40:32;;;;;;;4.03;3.80;;;;;;;-0.03;100.00;97704.63;4931266;28;20288;-67
2023/04/03 04:43:01;;;;;;;4.20;4.00;;;;;;;-0.15;100.00;97696.72;4947229;28;20210;-67
2023/04/03 04:45:28;;;;;;;4.17;3.97;;;;;;;-0.02;100.00;97711.50;4932887;28;20745;-67
2023/04/03 04:47:57;;;;;;;4.43;4.23;;;;;;;-0.15;100.00;97695.91;4930538;28;20439;-67
2023/04/03 04:50:24;;;;;;;3.97;3.67;;;;;;;-0.06;100.00;97713.50;4941934;28;20655;-66
2023/04/03 04:52:52;;;;;;;4.40;4.10;;;;;;;-0.07;100.00;97714.44;4945641;28;20206;-68
2023/04/03 04:55:20;;;;;;;4.23;3.93;;;;;;;-0.08;100.00;97715.38;4921386;28;20213;-65
2023/04/03 04:57:48;;;;;;;4.30;4.10;;;;;;;-0.02;100.00;97717.56;4951402;28;20206;-66
2023/04/03 05:00:18;;;;;;;4.37;4.07;;;;;;;0.00;100.00;97725.28;4955352;28;20226;-65
2023/04/03 05:02:45;;;;;;;4.50;4.17;;;;;;;0.01;100.00;97728.72;4931609;28;20209;-66
2023/04/03 05:05:14;;;;;;;4.83;4.43;;;;;;;0.03;100.00;97724.25;4916696;28;20711;-65
2023/04/03 05:07:42;;;;;;;4.60;4.30;;;;;;;-0.01;100.00;97719.25;4952362;28;20220;-66
2023/04/03 05:10:10;;;;;;;4.20;4.00;;;;;;;0.02;100.00;97717.38;4907130;28;20475;-66
2023/04/03 05:12:38;;;;;;;4.20;3.97;;;;;;;0.05;100.00;97732.78;4956164;28;20202;-65
2023/04/03 05:15:07;;;;;;;5.10;4.70;;;;;;;0.02;100.00;97718.22;4950601;28;21028;-66
2023/04/03 05:17:36;;;;;;;4.10;3.90;;;;;;;0.03;100.00;97727.69;4936740;28;20213;-66
2023/04/03 05:20:05;;;;;;;4.53;4.07;;;;;;;0.04;100.00;97725.91;4916316;28;20229;-67
2023/04/03 05:22:33;;;;;;;4.30;4.00;;;;;;;0.09;100.00;97724.66;4950553;28;20693;-66
2023/04/03 05:25:00;;;;;;;4.47;4.17;;;;;;;0.11;100.00;97730.59;4926499;28;20819;-63
2023/04/03 05:27:28;;;;;;;4.70;4.30;;;;;;;0.17;100.00;97734.53;4952611;28;20210;-64
2023/04/03 05:29:56;;;;;;;6.63;6.03;;;;;;;0.15;100.00;97733.81;4972097;28;20217;-65
2023/04/03 05:32:24;;;;;;;4.47;4.20;;;;;;;0.21;100.00;97730.81;4949230;28;20209;-66
2023/04/03 05:34:54;;;;;;;4.87;4.47;;;;;;;0.28;100.00;97731.22;4939579;28;20767;-67
2023/04/03 05:37:22;;;;;;;4.60;4.30;;;;;;;0.29;100.00;97725.06;4970467;28;20298;-65
2023/04/03 05:39:50;;;;;;;4.93;4.60;;;;;;;0.37;100.00;97733.19;4970646;28;21225;-66
2023/04/03 05:42:18;;;;;;;4.53;4.23;;;;;;;0.35;100.00;97722.03;4926260;28;20534;-66
2023/04/03 05:44:46;;;;;;;4.73;4.43;;;;;;;0.44;100.00;97730.97;4971968;28;20189;-64
2023/04/03 05:47:15;;;;;;;4.93;4.43;;;;;;;0.45;100.00;97735.25;4969334;28;20570;-67
2023/04/03 05:49:45;;;;;;;4.57;4.27;;;;;;;0.51;100.00;97734.81;4957391;28;20247;-66
2023/04/03 05:52:20;;;;;;;4.90;4.40;;;;;;;0.49;100.00;97728.06;4922610;28;20218;-66
2023/04/03 05:54:48;;;;;;;4.53;4.23;;;;;;;0.67;100.00;97739.81;4973057;28;20211;-66
2023/04/03 05:57:17;;;;;;;4.90;3.87;;;;;;;0.69;100.00;97719.66;4948385;28;20220;-67
2023/04/03 05:59:46;;;;;;;4.80;4.40;;;;;;;0.82;100.00;97730.06;4964693;28;20221;-67
2023/04/03 06:02:15;;;;;;;4.77;4.37;;;;;;;0.95;100.00;97739.66;4971028;28;20267;-66
2023/04/03 06:04:43;;;;;;;4.40;4.10;;;;;;;1.01;100.00;97747.03;4948038;28;20555;-67
2023/04/03 06:07:12;;;;;;;3.77;3.57;;;;;;;1.05;100.00;97737.19;4935881;28;20214;-66
2023/04/03 06:09:41;;;;;;;4.90;4.43;;;;;;;1.08;100.00;97743.03;4951302;28;20317;-67
2023/04/03 06:12:09;;;;;;;4.77;4.37;;;;;;;0.97;100.00;97722.94;4950835;28;20483;-66
2023/04/03 06:14:37;;;;;;;4.00;3.80;;;;;;;1.05;100.00;97747.63;4947881;28;20751;-67
2023/04/03 06:17:05;;;;;;;4.30;3.90;;;;;;;1.14;100.00;97739.97;4964337;28;20208;-65
2023/04/03 06:19:33;;;;;;;4.30;4.03;;;;;;;1.22;100.00;97746.41;4949311;28;20843;-66
2023/04/03 06:22:01;;;;;;;4.50;4.20;;;;;;;1.19;100.00;97744.88;4916365;28;21743;-68
2023/04/03 06:24:30;;;;;;;7.90;4.30;;;;;;;1.32;100.00;97744.78;4953179;28;20557;-68
2023/04/03 06:26:59;;;;;;;7.00;4.63;;;;;;;1.46;100.00;97745.59;4949098;28;20681;-69
2023/04/03 06:29:27;;;;;;;4.50;4.10;;;;;;;1.58;100.00;97747.28;4949213;28;20227;-68
2023/04/03 06:31:54;;;;;;;3.93;3.73;;;;;;;1.64;100.00;97754.66;4968149;28;20776;-69
2023/04/03 06:34:22;;;;;;;4.27;3.97;;;;;;;1.63;100.00;97750.38;4955373;28;20767;-68
2023/04/03 06:36:53;;;;;;;4.93;4.53;;;;;;;1.69;100.00;97744.69;4900117;28;20216;-70
2023/04/03 06:39:22;;;;;;;3.80;3.60;;;;;;;1.76;100.00;97755.53;4947586;28;20310;-68
2023/04/03 06:41:50;;;;;;;5.43;4.07;;;;;;;1.77;100.00;97759.81;4976607;28;20565;-68
2023/04/03 06:44:19;;;;;;;4.88;4.50;;;;;;;1.77;100.00;97764.22;4917805;28;20498;-67
2023/04/03 06:46:48;;;;;;;4.67;4.37;;;;;;;1.83;100.00;97763.75;4976170;28;20468;-67
2023/04/03 06:49:16;;;;;;;4.50;3.77;;;;;;;1.84;100.00;97760.22;4971392;28;20296;-67
2023/04/03 06:51:43;;;;;;;4.80;4.40;;;;;;;1.98;100.00;97765.22;4949441;28;20640;-67
2023/04/03 06:54:11;;;;;;;4.60;4.30;;;;;;;2.02;100.00;97756.19;4904463;28;20352;-67
2023/04/03 06:56:39;;;;;;;4.50;4.20;;;;;;;2.15;100.00;97765.75;4974971;28;20447;-67
2023/04/03 06:59:06;;;;;;;3.70;3.50;;;;;;;2.18;100.00;97765.50;4926698;28;20487;-68
2023/04/03 07:01:35;;;;;;;5.57;5.07;;;;;;;2.25;100.00;97765.84;4977217;28;20615;-67
2023/04/03 07:04:03;;;;;;;4.17;3.87;;;;;;;2.33;100.00;97773.13;4971778;28;20209;-66
2023/04/03 07:06:33;;;;;;;4.50;4.20;;;;;;;2.29;100.00;97772.53;4951233;28;20209;-66
2023/04/03 07:09:01;;;;;;;4.30;3.70;;;;;;;2.30;100.00;97769.78;4935672;28;20201;-67
2023/04/03 07:11:30;;;;;;;3.90;3.70;;;;;;;2.46;100.00;97776.44;4961498;28;20224;-66
2023/04/03 07:13:58;;;;;;;4.20;3.80;;;;;;;2.30;100.00;97777.63;4932448;28;21517;-67
2023/04/03 07:16:25;;;;;;;5.07;3.93;;;;;;;2.31;100.00;97781.91;4975342;28;20200;-66
2023/04/03 07:18:54;;;;;;;2.80;2.67;;;;;;;2.30;100.00;97787.28;4973920;28;20221;-66
2023/04/03 07:21:22;;;;;;;5.00;3.47;;;;;;;2.31;100.00;97791.56;4951021;28;20741;-66
2023/04/03 07:23:50;;;;;;;3.50;3.20;;;;;;;2.23;100.00;97789.53;4926499;28;20244;-66
2023/04/03 07:26:17;;;;;;;3.47;3.17;;;;;;;2.33;100.00;97792.28;4953401;28;20421;-66
2023/04/03 07:28:48;;;;;;;4.20;3.17;;;;;;;2.46;100.00;97795.63;4946422;28;20213;-65
2023/04/03 07:31:17;;;;;;;3.60;3.30;;;;;;;2.23;100.00;97796.53;4938991;28;20519;-67
2023/04/03 07:33:45;;;;;;;5.00;3.20;;;;;;;2.47;100.00;97804.31;4973314;28;20271;-66
2023/04/03 07:36:18;;;;;;;3.73;3.53;;;;;;;2.70;100.00;97799.91;4965730;28;20988;-67
2023/04/03 07:38:46;;;;;;;3.73;3.20;;;;;;;2.57;100.00;97805.25;4946543;28;20220;-66
2023/04/03 07:41:17;;;;;;;4.77;3.73;;;;;;;2.65;100.00;97801.22;4903734;28;20237;-67
2023/04/03 07:43:45;;;;;;;3.33;3.07;;;;;;;2.75;100.00;97803.00;4969143;28;20745;-66
2023/04/03 07:46:12;;;;;;;3.90;3.50;;;;;;;2.76;100.00;97806.44;4921204;28;20212;-67
2023/04/03 07:48:40;;;;;;;3.27;2.97;;;;;;;2.99;100.00;97803.81;4976964;28;20265;-65
2023/04/03 07:51:08;;;;;;;3.07;2.87;;;;;;;2.97;99.04;97811.78;4965864;28;20226;-67
2023/04/03 07:53:37;;;;;;;3.20;2.87;;;;;;;2.80;93.85;97807.84;4948685;28;20652;-66
2023/04/03 07:56:05;;;;;;;2.37;2.27;;;;;;;2.76;92.37;97811.66;4917636;28;20356;-68
2023/04/03 07:58:32;;;;;;;3.40;2.67;;;;;;;2.75;92.19;97810.84;4966286;28;20213;-65
2023/04/03 08:01:04;;;;;;;3.20;3.00;;;;;;;2.90;94.77;97802.75;4931408;28;20229;-68
2023/04/03 08:03:31;;;;;;;3.37;2.70;;;;;;;2.99;92.01;97809.06;4956555;28;20213;-67
2023/04/03 08:06:03;;;;;;;3.50;3.30;;;;;;;2.74;90.93;97801.34;4973601;28;20205;-67
2023/04/03 08:08:32;;;;;;;3.90;3.50;;;;;;;2.90;93.68;97810.59;4965409;28;20294;-65
2023/04/03 08:11:05;;;;;;;3.50;3.20;;;;;;;2.67;89.80;97807.16;4928707;28;20233;-67
2023/04/03 08:13:34;;;;;;;2.87;2.77;;;;;;;2.63;91.87;97803.13;4962919;28;20781;-67
2023/04/03 08:16:09;;;;;;;2.63;2.53;;;;;;;2.43;90.83;97806.31;4938929;28;20214;-67
2023/04/03 08:18:37;;;;;;;3.07;2.87;;;;;;;2.36;87.00;97809.50;4975495;28;21282;-66
2023/04/03 08:21:07;;;;;;;4.37;2.27;;;;;;;2.49;86.04;97807.63;4968888;28;20243;-68
2023/04/03 08:23:34;;;;;;;2.57;2.37;;;;;;;2.61;84.55;97798.00;4973676;28;20319;-66
2023/04/03 08:26:14;;;;;;;3.73;2.33;;;;;;;2.46;82.07;97805.22;4930750;28;20217;-68
2023/04/03 08:28:42;;;;;;;4.27;2.73;;;;;;;2.62;81.94;97806.69;4972914;28;20216;-67
2023/04/03 08:31:12;;;;;;;2.37;2.27;;;;;;;2.81;81.21;97806.91;4927887;28;20759;-67
2023/04/03 08:33:40;;;;;;;2.83;2.63;;;;;;;2.55;79.40;97815.00;4975334;28;20204;-67
2023/04/03 08:36:17;;;;;;;2.53;2.33;;;;;;;2.48;80.06;97815.59;4969306;28;20336;-68
2023/04/03 08:38:45;;;;;;;2.07;1.90;;;;;;;2.53;78.97;97808.22;4973109;28;20205;-67
2023/04/03 08:41:16;;;;;;;2.77;2.40;;;;;;;2.24;73.09;97816.50;4926056;28;20229;-69
2023/04/03 08:43:55;;;;;;;2.40;1.83;;;;;;;2.20;75.15;97815.91;4971686;28;20201;-68
2023/04/03 08:46:25;;;;;;;2.13;2.03;;;;;;;2.47;75.18;97820.00;4935301;28;21212;-66
2023/04/03 08:48:54;;;;;;;3.40;3.10;;;;;;;3.28;70.63;97817.22;4953512;28;20307;-69
2023/04/03 08:51:23;;;;;;;2.87;2.63;;;;;;;3.24;66.30;97823.66;4961301;28;20220;-67
2023/04/03 08:53:57;;;;;;;2.67;2.00;;;;;;;3.72;64.22;97817.22;4974156;28;20201;-67
2023/04/03 08:56:26;;;;;;;2.10;1.90;;;;;;;3.54;64.60;97823.94;4970797;28;20980;-66
2023/04/03 08:58:57;;;;;;;2.00;1.90;;;;;;;3.06;68.85;97818.09;4933501;28;20633;-69
2023/04/03 09:01:27;;;;;;;2.13;2.03;;;;;;;2.72;71.84;97823.34;4943309;28;21337;-66
2023/04/03 09:03:55;;;;;;;2.27;1.90;;;;;;;2.51;72.22;97823.19;4948287;28;20216;-67
2023/04/03 09:06:25;;;;;;;2.23;2.07;;;;;;;2.84;72.15;97826.78;4967726;28;20291;-67
2023/04/03 09:08:56;;;;;;;2.30;2.07;;;;;;;3.50;69.23;97822.53;4971754;28;20205;-67
2023/04/03 09:11:28;;;;;;;2.30;1.57;;;;;;;3.65;69.96;97836.19;4970081;28;20209;-67
2023/04/03 09:13:58;;;;;;;6.10;2.40;;;;;;;3.43;71.92;97837.94;4937440;28;20394;-67
2023/04/03 09:16:36;;;;;;;2.50;2.30;;;;;;;3.09;68.81;97830.13;4971758;28;20220;-68
2023/04/03 09:19:14;;;;;;;2.87;1.60;;;;;;;3.16;69.28;97829.50;4927624;28;21159;-65
2023/04/03 09:21:42;;;;;;;2.27;1.87;;;;;;;3.08;66.73;97844.97;4970284;28;20252;-66
2023/04/03 09:24:11;;;;;;;1.83;1.70;;;;;;;3.27;65.33;97840.94;4970448;28;20205;-67
2023/04/03 09:26:44;;;;;;;2.07;1.97;;;;;;;3.08;63.31;97834.50;4972341;28;20377;-66
2023/04/03 09:29:17;;;;;;;1.90;1.80;;;;;;;2.92;64.87;97850.56;4935170;28;20962;-67
2023/04/03 09:31:46;;;;;;;1.87;1.70;;;;;;;3.05;66.96;97850.47;4970716;28;20232;-67
2023/04/03 09:34:20;;;;;;;2.93;1.60;;;;;;;3.46;64.88;97841.13;4921157;28;20209;-68
2023/04/03 09:36:51;;;;;;;1.80;1.70;;;;;;;4.08;65.64;97842.34;4970696;28;20218;-67
2023/04/03 09:39:21;;;;;;;1.93;1.83;;;;;;;4.80;63.35;97842.50;4971200;28;21001;-66
2023/04/03 09:41:59;;;;;;;1.70;1.60;;;;;;;4.82;57.48;97841.41;4974746;28;20316;-66
2023/04/03 09:44:29;;;;;;;1.80;1.70;;;;;;;5.15;59.13;97826.34;4938025;28;20209;-66
2023/04/03 09:46:56;;;;;;;2.47;1.73;;;;;;;5.44;57.76;97830.00;4970209;28;20201;-66
2023/04/03 09:49:24;;;;;;;2.03;1.63;;;;;;;5.82;57.01;97824.91;4925587;28;20969;-68
2023/04/03 09:51:53;;;;;;;2.67;2.03;;;;;;;5.85;58.70;97836.00;4970691;28;20205;-68
2023/04/03 09:54:38;;;;;;;2.03;1.93;;;;;;;5.77;59.13;97826.16;4965380;28;20200;-68
2023/04/03 09:57:11;;;;;;;1.47;1.27;;;;;;;5.56;54.61;97828.09;4969173;28;20248;-68
2023/04/03 09:59:46;;;;;;;1.83;1.73;;;;;;;5.21;53.30;97835.47;4969234;28;20858;-67
2023/04/03 10:02:33;;;;;;;3.50;2.10;;;;;;;5.15;54.31;97828.97;4927161;28;20254;-66
2023/04/03 10:05:01;;;;;;;1.73;1.63;;;;;;;5.21;53.74;97828.44;4943905;28;20212;-69
2023/04/03 10:07:34;;;;;;;2.40;1.90;;;;;;;5.16;52.85;97833.25;4964892;28;20248;-68
2023/04/03 10:10:06;;;;;;;2.17;1.97;;;;;;;5.24;53.00;97832.56;4970238;28;20315;-69
2023/04/03 10:12:35;;;;;;;1.90;1.80;;;;;;;4.85;53.26;97824.56;4966438;28;20221;-68
2023/04/03 10:15:04;;;;;;;2.57;1.93;;;;;;;4.92;53.89;97821.28;4951234;28;20213;-66
2023/04/03 10:17:38;;;;;;;1.87;1.77;;;;;;;4.85;53.89;97829.81;4960850;28;20217;-67
2023/04/03 10:20:16;;;;;;;3.00;2.00;;;;;;;4.89;53.21;97811.03;4928419;28;20234;-68
2023/04/03 10:22:52;;;;;;;1.93;1.83;;;;;;;4.96;55.04;97808.72;4945846;28;20416;-68
2023/04/03 10:25:26;;;;;;;2.57;2.00;;;;;;;4.97;54.63;97817.41;4970617;28;20574;-66
2023/04/03 10:27:59;;;;;;;2.07;1.97;;;;;;;4.87;54.47;97810.34;4957504;28;20197;-67
2023/04/03 10:30:38;;;;;;;2.00;1.73;;;;;;;5.21;57.05;97817.06;4971394;28;20699;-66
2023/04/03 10:33:18;;;;;;;2.17;2.00;;;;;;;5.33;52.12;97817.78;4939165;28;20217;-68
2023/04/03 10:35:54;;;;;;;4.93;2.40;;;;;;;5.51;54.43;97817.97;4934164;28;20585;-70
2023/04/03 10:38:29;;;;;;;1.90;1.80;;;;;;;5.25;55.36;97800.06;4972283;28;20232;-69
2023/04/03 10:41:01;;;;;;;2.30;2.20;;;;;;;5.30;53.28;97811.03;4966854;28;20407;-68
2023/04/03 10:43:35;;;;;;;2.37;2.17;;;;;;;5.27;54.40;97805.19;4961949;28;20252;-68
2023/04/03 10:46:05;;;;;;;2.27;2.07;;;;;;;4.73;52.61;97811.53;4896848;28;20957;-68
2023/04/03 10:48:43;;;;;;;2.13;1.97;;;;;;;4.83;53.44;97802.84;4971502;28;20224;-68
2023/04/03 10:51:19;;;;;;;2.17;2.07;;;;;;;5.38;54.46;97809.53;4946790;28;21109;-68
2023/04/03 10:53:53;;;;;;;1.83;1.73;;;;;;;5.08;52.92;97804.16;4966648;28;20201;-67
2023/04/03 10:56:31;;;;;;;3.20;2.13;;;;;;;4.30;54.62;97799.41;4972122;28;20201;-67
2023/04/03 10:59:06;;;;;;;2.70;2.50;;;;;;;3.93;54.80;97803.31;4969238;28;20212;-66
2023/04/03 11:01:37;;;;;;;2.30;2.03;;;;;;;3.75;56.71;97803.88;4967542;28;20571;-67
2023/04/03 11:04:07;;;;;;;2.47;2.20;;;;;;;3.89;56.94;97794.88;4941674;28;20205;-66
2023/04/03 11:06:40;;;;;;;1.70;1.60;;;;;;;3.93;55.60;97797.25;4970178;28;20224;-67
2023/04/03 11:09:17;;;;;;;1.97;1.87;;;;;;;3.81;53.48;97793.84;4960388;28;20686;-67
2023/04/03 11:11:47;;;;;;;1.50;1.50;;;;;;;3.98;53.87;97802.94;4968275;28;20490;-67
2023/04/03 11:14:24;;;;;;;1.40;1.40;;;;;;;4.14;53.90;97792.00;4970638;28;20938;-68
2023/04/03 11:17:00;;;;;;;1.77;1.67;;;;;;;4.58;54.29;97794.47;4966569;28;20608;-69
2023/04/03 11:19:35;;;;;;;2.00;1.90;;;;;;;4.99;54.38;97795.31;4922955;28;20226;-67
2023/04/03 11:22:07;;;;;;;2.57;2.37;;;;;;;5.20;53.42;97774.22;4946786;28;20219;-66
2023/04/03 11:24:38;;;;;;;2.20;2.00;;;;;;;5.31;53.36;97777.69;4980681;28;20214;-66
2023/04/03 11:27:06;;;;;;;7.27;3.07;;;;;;;5.43;51.55;97783.66;4980851;28;20223;-67
2023/04/03 11:29:37;;;;;;;1.20;1.20;;;;;;;5.35;52.52;97776.44;4971217;28;20210;-67
2023/04/03 11:32:11;;;;;;;2.00;1.60;;;;;;;4.70;52.08;97784.69;4947908;28;20992;-67
2023/04/03 11:34:43;;;;;;;1.87;1.77;;;;;;;4.43;53.17;97789.53;4937836;28;20209;-68
2023/04/03 11:37:17;;;;;;;2.63;1.70;;;;;;;4.06;52.50;97782.13;4950879;28;21024;-68
2023/04/03 11:39:51;;;;;;;2.00;1.90;;;;;;;4.30;52.97;97784.50;4951129;28;20260;-69
2023/04/03 11:42:27;;;;;;;1.90;1.80;;;;;;;4.42;53.37;97777.38;4973458;28;20201;-66
2023/04/03 11:45:18;;;;;;;1.70;1.60;;;;;;;4.77;53.89;97770.09;4965132;28;20479;-67
2023/04/03 11:47:47;;;;;;;1.80;1.70;;;;;;;5.10;52.55;97775.97;4969509;28;20418;-67